sensor_id;sensor_type;location;lat;lon;timestamp;P1;durP1;ratioP1;P2;durP2;ratioP2
42006;SDS011;27696;42.704;23.304;2022-07-10T00:00:03;17.23;;;15.82;;
42006;SDS011;27696;42.704;23.304;2022-07-10T00:02:31;18.50;;;16.70;;
42006;SDS011;27696;42.704;23.304;2022-07-10T00:04:57;18.30;;;16.70;;
42006;SDS011;27696;42.704;23.304;2022-07-10T00:07:22;17.63;;;16.13;;
42006;SDS011;27696;42.704;23.304;2022-07-10T00:09:47;17.60;;;16.20;;
42006;SDS011;27696;42.704;23.304;2022-07-10T00:12:13;17.83;;;16.23;;
42006;SDS011;27696;42.704;23.304;2022-07-10T00:14:38;19.23;;;17.45;;
42006;SDS011;27696;42.704;23.304;2022-07-10T00:17:04;19.15;;;17.55;;
42006;SDS011;27696;42.704;23.304;2022-07-10T00:19:30;17.83;;;16.33;;
42006;SDS011;27696;42.704;23.304;2022-07-10T00:21:55;19.60;;;17.73;;
42006;SDS011;27696;42.704;23.304;2022-07-10T00:24:21;17.60;;;16.10;;
42006;SDS011;27696;42.704;23.304;2022-07-10T00:26:46;18.05;;;16.42;;
42006;SDS011;27696;42.704;23.304;2022-07-10T00:29:13;19.10;;;17.40;;
42006;SDS011;27696;42.704;23.304;2022-07-10T00:31:38;18.10;;;16.45;;
42006;SDS011;27696;42.704;23.304;2022-07-10T00:34:04;18.27;;;16.67;;
42006;SDS011;27696;42.704;23.304;2022-07-10T00:36:29;18.63;;;16.77;;
42006;SDS011;27696;42.704;23.304;2022-07-10T00:38:55;20.55;;;18.70;;
42006;SDS011;27696;42.704;23.304;2022-07-10T00:41:20;17.90;;;16.40;;
42006;SDS011;27696;42.704;23.304;2022-07-10T00:43:52;18.27;;;16.55;;
42006;SDS011;27696;42.704;23.304;2022-07-10T00:46:25;18.13;;;16.42;;
42006;SDS011;27696;42.704;23.304;2022-07-10T00:48:52;18.17;;;16.67;;
42006;SDS011;27696;42.704;23.304;2022-07-10T00:51:19;18.45;;;16.85;;
42006;SDS011;27696;42.704;23.304;2022-07-10T00:53:46;18.38;;;16.67;;
42006;SDS011;27696;42.704;23.304;2022-07-10T00:56:17;18.88;;;17.00;;
42006;SDS011;27696;42.704;23.304;2022-07-10T00:58:45;17.55;;;15.95;;
42006;SDS011;27696;42.704;23.304;2022-07-10T01:01:11;18.48;;;16.63;;
42006;SDS011;27696;42.704;23.304;2022-07-10T01:03:37;18.27;;;16.70;;
42006;SDS011;27696;42.704;23.304;2022-07-10T01:06:02;18.50;;;16.85;;
42006;SDS011;27696;42.704;23.304;2022-07-10T01:08:28;18.35;;;16.65;;
42006;SDS011;27696;42.704;23.304;2022-07-10T01:10:53;17.80;;;16.33;;
42006;SDS011;27696;42.704;23.304;2022-07-10T01:13:19;17.33;;;15.73;;
42006;SDS011;27696;42.704;23.304;2022-07-10T01:15:45;17.52;;;16.05;;
42006;SDS011;27696;42.704;23.304;2022-07-10T01:18:11;16.75;;;15.10;;
42006;SDS011;27696;42.704;23.304;2022-07-10T01:20:38;17.15;;;15.55;;
42006;SDS011;27696;42.704;23.304;2022-07-10T01:23:03;16.75;;;15.35;;
42006;SDS011;27696;42.704;23.304;2022-07-10T01:25:29;16.88;;;15.27;;
42006;SDS011;27696;42.704;23.304;2022-07-10T01:27:54;16.90;;;15.40;;
42006;SDS011;27696;42.704;23.304;2022-07-10T01:30:20;17.05;;;15.45;;
42006;SDS011;27696;42.704;23.304;2022-07-10T01:32:46;17.50;;;16.00;;
42006;SDS011;27696;42.704;23.304;2022-07-10T01:35:12;16.80;;;15.32;;
42006;SDS011;27696;42.704;23.304;2022-07-10T01:37:39;16.33;;;15.02;;
42006;SDS011;27696;42.704;23.304;2022-07-10T01:40:05;16.13;;;14.48;;
42006;SDS011;27696;42.704;23.304;2022-07-10T01:42:31;16.92;;;15.38;;
42006;SDS011;27696;42.704;23.304;2022-07-10T01:44:57;17.00;;;15.35;;
42006;SDS011;27696;42.704;23.304;2022-07-10T01:47:22;16.58;;;15.13;;
42006;SDS011;27696;42.704;23.304;2022-07-10T01:49:50;16.52;;;14.90;;
42006;SDS011;27696;42.704;23.304;2022-07-10T01:52:16;15.85;;;14.48;;
42006;SDS011;27696;42.704;23.304;2022-07-10T01:54:41;16.65;;;15.25;;
42006;SDS011;27696;42.704;23.304;2022-07-10T01:57:07;16.58;;;14.93;;
42006;SDS011;27696;42.704;23.304;2022-07-10T01:59:32;15.15;;;13.70;;
42006;SDS011;27696;42.704;23.304;2022-07-10T02:01:58;16.77;;;14.30;;
42006;SDS011;27696;42.704;23.304;2022-07-10T02:04:23;16.75;;;15.30;;
42006;SDS011;27696;42.704;23.304;2022-07-10T02:07:10;16.77;;;15.13;;
42006;SDS011;27696;42.704;23.304;2022-07-10T02:09:37;15.35;;;14.00;;
42006;SDS011;27696;42.704;23.304;2022-07-10T02:12:04;15.65;;;14.32;;
42006;SDS011;27696;42.704;23.304;2022-07-10T02:14:30;15.85;;;14.52;;
42006;SDS011;27696;42.704;23.304;2022-07-10T02:16:56;15.40;;;14.02;;
42006;SDS011;27696;42.704;23.304;2022-07-10T02:19:22;16.42;;;14.80;;
42006;SDS011;27696;42.704;23.304;2022-07-10T02:21:48;16.77;;;15.27;;
42006;SDS011;27696;42.704;23.304;2022-07-10T02:24:14;16.35;;;14.98;;
42006;SDS011;27696;42.704;23.304;2022-07-10T02:26:39;16.80;;;15.25;;
42006;SDS011;27696;42.704;23.304;2022-07-10T02:29:04;16.40;;;14.88;;
42006;SDS011;27696;42.704;23.304;2022-07-10T02:31:30;17.75;;;16.05;;
42006;SDS011;27696;42.704;23.304;2022-07-10T02:33:57;17.48;;;15.98;;
42006;SDS011;27696;42.704;23.304;2022-07-10T02:36:22;17.48;;;15.88;;
42006;SDS011;27696;42.704;23.304;2022-07-10T02:38:48;16.92;;;15.45;;
42006;SDS011;27696;42.704;23.304;2022-07-10T02:41:13;17.05;;;15.55;;
42006;SDS011;27696;42.704;23.304;2022-07-10T02:43:39;17.48;;;15.65;;
42006;SDS011;27696;42.704;23.304;2022-07-10T02:46:04;18.17;;;16.58;;
42006;SDS011;27696;42.704;23.304;2022-07-10T02:48:30;16.70;;;15.05;;
42006;SDS011;27696;42.704;23.304;2022-07-10T02:50:55;16.33;;;14.90;;
42006;SDS011;27696;42.704;23.304;2022-07-10T02:53:21;15.25;;;13.90;;
42006;SDS011;27696;42.704;23.304;2022-07-10T02:55:46;16.58;;;15.07;;
42006;SDS011;27696;42.704;23.304;2022-07-10T02:58:12;16.35;;;14.90;;
42006;SDS011;27696;42.704;23.304;2022-07-10T03:00:37;15.95;;;14.63;;
42006;SDS011;27696;42.704;23.304;2022-07-10T03:03:03;16.08;;;14.70;;
42006;SDS011;27696;42.704;23.304;2022-07-10T03:05:28;16.33;;;14.80;;
42006;SDS011;27696;42.704;23.304;2022-07-10T03:07:54;16.15;;;14.68;;
42006;SDS011;27696;42.704;23.304;2022-07-10T03:10:20;15.15;;;13.75;;
42006;SDS011;27696;42.704;23.304;2022-07-10T03:12:45;15.43;;;14.02;;
42006;SDS011;27696;42.704;23.304;2022-07-10T03:15:11;15.55;;;14.07;;
42006;SDS011;27696;42.704;23.304;2022-07-10T03:17:37;15.75;;;14.38;;
42006;SDS011;27696;42.704;23.304;2022-07-10T03:20:03;15.43;;;14.02;;
42006;SDS011;27696;42.704;23.304;2022-07-10T03:22:29;15.93;;;14.48;;
42006;SDS011;27696;42.704;23.304;2022-07-10T03:24:55;16.50;;;14.43;;
42006;SDS011;27696;42.704;23.304;2022-07-10T03:27:21;15.60;;;14.10;;
42006;SDS011;27696;42.704;23.304;2022-07-10T03:29:46;15.18;;;13.85;;
42006;SDS011;27696;42.704;23.304;2022-07-10T03:32:12;17.90;;;14.63;;
42006;SDS011;27696;42.704;23.304;2022-07-10T03:34:37;16.33;;;14.73;;
42006;SDS011;27696;42.704;23.304;2022-07-10T03:37:03;15.25;;;13.85;;
42006;SDS011;27696;42.704;23.304;2022-07-10T03:39:28;16.90;;;15.15;;
42006;SDS011;27696;42.704;23.304;2022-07-10T03:41:54;16.17;;;14.55;;
42006;SDS011;27696;42.704;23.304;2022-07-10T03:44:19;15.90;;;14.50;;
42006;SDS011;27696;42.704;23.304;2022-07-10T03:46:45;15.45;;;14.15;;
42006;SDS011;27696;42.704;23.304;2022-07-10T03:49:10;15.82;;;14.18;;
42006;SDS011;27696;42.704;23.304;2022-07-10T03:51:36;16.15;;;14.52;;
42006;SDS011;27696;42.704;23.304;2022-07-10T03:54:01;15.68;;;14.25;;
42006;SDS011;27696;42.704;23.304;2022-07-10T03:56:27;15.23;;;13.70;;
42006;SDS011;27696;42.704;23.304;2022-07-10T03:59:11;15.90;;;14.30;;
42006;SDS011;27696;42.704;23.304;2022-07-10T04:01:36;15.10;;;13.60;;
42006;SDS011;27696;42.704;23.304;2022-07-10T04:04:02;19.08;;;14.48;;
42006;SDS011;27696;42.704;23.304;2022-07-10T04:06:28;15.20;;;13.80;;
42006;SDS011;27696;42.704;23.304;2022-07-10T04:08:53;15.15;;;13.75;;
42006;SDS011;27696;42.704;23.304;2022-07-10T04:11:19;14.90;;;13.60;;
42006;SDS011;27696;42.704;23.304;2022-07-10T04:13:45;15.43;;;13.90;;
42006;SDS011;27696;42.704;23.304;2022-07-10T04:16:10;14.50;;;13.27;;
42006;SDS011;27696;42.704;23.304;2022-07-10T04:18:38;19.77;;;13.35;;
42006;SDS011;27696;42.704;23.304;2022-07-10T04:21:04;15.50;;;12.57;;
42006;SDS011;27696;42.704;23.304;2022-07-10T04:23:32;17.63;;;14.60;;
42006;SDS011;27696;42.704;23.304;2022-07-10T04:25:58;14.75;;;12.93;;
42006;SDS011;27696;42.704;23.304;2022-07-10T04:28:23;14.57;;;13.13;;
42006;SDS011;27696;42.704;23.304;2022-07-10T04:30:48;12.88;;;11.82;;
42006;SDS011;27696;42.704;23.304;2022-07-10T04:33:14;14.35;;;12.95;;
42006;SDS011;27696;42.704;23.304;2022-07-10T04:35:39;13.18;;;11.82;;
42006;SDS011;27696;42.704;23.304;2022-07-10T04:38:05;15.02;;;11.95;;
42006;SDS011;27696;42.704;23.304;2022-07-10T04:40:30;12.85;;;11.75;;
42006;SDS011;27696;42.704;23.304;2022-07-10T04:42:56;12.93;;;11.73;;
42006;SDS011;27696;42.704;23.304;2022-07-10T04:45:22;15.30;;;13.70;;
42006;SDS011;27696;42.704;23.304;2022-07-10T04:47:47;14.02;;;11.90;;
42006;SDS011;27696;42.704;23.304;2022-07-10T04:50:12;12.55;;;10.95;;
42006;SDS011;27696;42.704;23.304;2022-07-10T04:52:38;13.32;;;11.95;;
42006;SDS011;27696;42.704;23.304;2022-07-10T04:55:04;13.82;;;12.50;;
42006;SDS011;27696;42.704;23.304;2022-07-10T04:57:29;12.13;;;11.02;;
42006;SDS011;27696;42.704;23.304;2022-07-10T04:59:55;13.07;;;11.93;;
42006;SDS011;27696;42.704;23.304;2022-07-10T05:02:21;11.38;;;10.15;;
42006;SDS011;27696;42.704;23.304;2022-07-10T05:04:47;11.18;;;10.07;;
42006;SDS011;27696;42.704;23.304;2022-07-10T05:07:13;11.25;;;10.15;;
42006;SDS011;27696;42.704;23.304;2022-07-10T05:09:39;13.73;;;10.85;;
42006;SDS011;27696;42.704;23.304;2022-07-10T05:12:05;11.48;;;10.32;;
42006;SDS011;27696;42.704;23.304;2022-07-10T05:14:31;11.52;;;10.45;;
42006;SDS011;27696;42.704;23.304;2022-07-10T05:16:56;11.77;;;10.73;;
42006;SDS011;27696;42.704;23.304;2022-07-10T05:19:22;13.45;;;10.57;;
42006;SDS011;27696;42.704;23.304;2022-07-10T05:21:48;12.48;;;11.20;;
42006;SDS011;27696;42.704;23.304;2022-07-10T05:24:13;11.15;;;9.82;;
42006;SDS011;27696;42.704;23.304;2022-07-10T05:26:39;11.32;;;10.23;;
42006;SDS011;27696;42.704;23.304;2022-07-10T05:29:04;11.30;;;10.02;;
42006;SDS011;27696;42.704;23.304;2022-07-10T05:31:30;10.50;;;9.55;;
42006;SDS011;27696;42.704;23.304;2022-07-10T05:33:55;11.18;;;10.13;;
42006;SDS011;27696;42.704;23.304;2022-07-10T05:36:21;12.48;;;9.27;;
42006;SDS011;27696;42.704;23.304;2022-07-10T05:38:46;12.07;;;9.90;;
42006;SDS011;27696;42.704;23.304;2022-07-10T05:41:13;15.23;;;9.15;;
42006;SDS011;27696;42.704;23.304;2022-07-10T05:43:39;11.18;;;8.65;;
42006;SDS011;27696;42.704;23.304;2022-07-10T05:46:04;8.95;;;8.15;;
42006;SDS011;27696;42.704;23.304;2022-07-10T05:48:30;14.25;;;12.85;;
42006;SDS011;27696;42.704;23.304;2022-07-10T05:50:56;15.07;;;12.85;;
42006;SDS011;27696;42.704;23.304;2022-07-10T05:53:22;11.65;;;9.32;;
42006;SDS011;27696;42.704;23.304;2022-07-10T05:55:47;10.40;;;8.40;;
42006;SDS011;27696;42.704;23.304;2022-07-10T05:58:15;10.18;;;9.05;;
42006;SDS011;27696;42.704;23.304;2022-07-10T06:00:41;8.95;;;8.07;;
42006;SDS011;27696;42.704;23.304;2022-07-10T06:03:09;8.82;;;8.02;;
42006;SDS011;27696;42.704;23.304;2022-07-10T06:05:35;8.55;;;7.70;;
42006;SDS011;27696;42.704;23.304;2022-07-10T06:08:01;7.82;;;7.00;;
42006;SDS011;27696;42.704;23.304;2022-07-10T06:10:26;7.75;;;7.03;;
42006;SDS011;27696;42.704;23.304;2022-07-10T06:12:52;9.88;;;7.15;;
42006;SDS011;27696;42.704;23.304;2022-07-10T06:15:17;8.18;;;7.38;;
42006;SDS011;27696;42.704;23.304;2022-07-10T06:17:43;7.40;;;6.70;;
42006;SDS011;27696;42.704;23.304;2022-07-10T06:20:08;10.40;;;7.00;;
42006;SDS011;27696;42.704;23.304;2022-07-10T06:22:34;10.27;;;6.75;;
42006;SDS011;27696;42.704;23.304;2022-07-10T06:25:00;8.27;;;7.47;;
42006;SDS011;27696;42.704;23.304;2022-07-10T06:27:28;8.43;;;7.03;;
42006;SDS011;27696;42.704;23.304;2022-07-10T06:29:54;10.20;;;6.75;;
42006;SDS011;27696;42.704;23.304;2022-07-10T06:32:20;6.75;;;6.22;;
42006;SDS011;27696;42.704;23.304;2022-07-10T06:34:46;7.90;;;6.20;;
42006;SDS011;27696;42.704;23.304;2022-07-10T06:37:12;6.45;;;5.82;;
42006;SDS011;27696;42.704;23.304;2022-07-10T06:39:37;7.53;;;6.25;;
42006;SDS011;27696;42.704;23.304;2022-07-10T06:42:03;7.32;;;6.60;;
42006;SDS011;27696;42.704;23.304;2022-07-10T06:44:29;9.20;;;6.70;;
42006;SDS011;27696;42.704;23.304;2022-07-10T06:46:56;8.38;;;6.45;;
42006;SDS011;27696;42.704;23.304;2022-07-10T06:49:41;6.60;;;5.38;;
42006;SDS011;27696;42.704;23.304;2022-07-10T06:52:07;6.43;;;5.40;;
42006;SDS011;27696;42.704;23.304;2022-07-10T06:54:33;9.50;;;6.30;;
42006;SDS011;27696;42.704;23.304;2022-07-10T06:56:59;7.90;;;5.80;;
42006;SDS011;27696;42.704;23.304;2022-07-10T06:59:25;6.65;;;5.40;;
42006;SDS011;27696;42.704;23.304;2022-07-10T07:01:50;6.32;;;5.60;;
42006;SDS011;27696;42.704;23.304;2022-07-10T07:04:16;6.45;;;5.70;;
42006;SDS011;27696;42.704;23.304;2022-07-10T07:06:41;7.85;;;5.75;;
42006;SDS011;27696;42.704;23.304;2022-07-10T07:09:07;6.50;;;5.90;;
42006;SDS011;27696;42.704;23.304;2022-07-10T07:11:32;10.35;;;5.95;;
42006;SDS011;27696;42.704;23.304;2022-07-10T07:13:57;6.30;;;5.55;;
42006;SDS011;27696;42.704;23.304;2022-07-10T07:16:23;8.68;;;5.75;;
42006;SDS011;27696;42.704;23.304;2022-07-10T07:19:03;6.55;;;5.30;;
42006;SDS011;27696;42.704;23.304;2022-07-10T07:21:29;7.88;;;6.20;;
42006;SDS011;27696;42.704;23.304;2022-07-10T07:24:14;6.47;;;5.82;;
42006;SDS011;27696;42.704;23.304;2022-07-10T07:26:39;6.43;;;5.78;;
42006;SDS011;27696;42.704;23.304;2022-07-10T07:29:05;11.00;;;6.00;;
42006;SDS011;27696;42.704;23.304;2022-07-10T07:31:30;7.85;;;6.18;;
42006;SDS011;27696;42.704;23.304;2022-07-10T07:33:56;7.88;;;5.05;;
42006;SDS011;27696;42.704;23.304;2022-07-10T07:36:22;7.60;;;5.80;;
42006;SDS011;27696;42.704;23.304;2022-07-10T07:38:48;7.03;;;5.50;;
42006;SDS011;27696;42.704;23.304;2022-07-10T07:41:13;7.22;;;5.13;;
42006;SDS011;27696;42.704;23.304;2022-07-10T07:43:40;5.40;;;4.88;;
42006;SDS011;27696;42.704;23.304;2022-07-10T07:46:06;6.63;;;5.10;;
42006;SDS011;27696;42.704;23.304;2022-07-10T07:48:32;7.22;;;5.07;;
42006;SDS011;27696;42.704;23.304;2022-07-10T07:50:57;6.38;;;4.22;;
42006;SDS011;27696;42.704;23.304;2022-07-10T07:53:23;4.88;;;4.47;;
42006;SDS011;27696;42.704;23.304;2022-07-10T07:55:48;5.20;;;4.70;;
42006;SDS011;27696;42.704;23.304;2022-07-10T07:58:14;6.20;;;4.72;;
42006;SDS011;27696;42.704;23.304;2022-07-10T08:00:39;6.03;;;4.30;;
42006;SDS011;27696;42.704;23.304;2022-07-10T08:03:05;9.07;;;4.00;;
42006;SDS011;27696;42.704;23.304;2022-07-10T08:05:30;4.93;;;4.15;;
42006;SDS011;27696;42.704;23.304;2022-07-10T08:07:59;5.78;;;3.85;;
42006;SDS011;27696;42.704;23.304;2022-07-10T08:10:29;4.32;;;3.92;;
42006;SDS011;27696;42.704;23.304;2022-07-10T08:12:55;6.13;;;4.20;;
42006;SDS011;27696;42.704;23.304;2022-07-10T08:15:21;5.55;;;4.22;;
42006;SDS011;27696;42.704;23.304;2022-07-10T08:17:54;9.85;;;6.18;;
42006;SDS011;27696;42.704;23.304;2022-07-10T08:20:21;8.10;;;7.30;;
42006;SDS011;27696;42.704;23.304;2022-07-10T08:22:48;11.23;;;7.95;;
42006;SDS011;27696;42.704;23.304;2022-07-10T08:25:14;9.02;;;4.10;;
42006;SDS011;27696;42.704;23.304;2022-07-10T08:27:40;4.78;;;4.25;;
42006;SDS011;27696;42.704;23.304;2022-07-10T08:30:06;12.50;;;8.10;;
42006;SDS011;27696;42.704;23.304;2022-07-10T08:32:34;8.60;;;5.72;;
42006;SDS011;27696;42.704;23.304;2022-07-10T08:35:00;11.63;;;4.43;;
42006;SDS011;27696;42.704;23.304;2022-07-10T08:37:25;4.50;;;3.28;;
42006;SDS011;27696;42.704;23.304;2022-07-10T08:39:51;4.55;;;3.30;;
42006;SDS011;27696;42.704;23.304;2022-07-10T08:42:16;4.50;;;3.55;;
42006;SDS011;27696;42.704;23.304;2022-07-10T08:44:43;5.68;;;4.85;;
42006;SDS011;27696;42.704;23.304;2022-07-10T08:47:08;3.67;;;3.38;;
42006;SDS011;27696;42.704;23.304;2022-07-10T08:49:36;5.85;;;3.88;;
42006;SDS011;27696;42.704;23.304;2022-07-10T08:54:33;5.30;;;3.50;;
42006;SDS011;27696;42.704;23.304;2022-07-10T08:57:02;7.95;;;3.88;;
42006;SDS011;27696;42.704;23.304;2022-07-10T08:59:28;8.55;;;4.60;;
42006;SDS011;27696;42.704;23.304;2022-07-10T09:01:55;3.75;;;3.45;;
42006;SDS011;27696;42.704;23.304;2022-07-10T09:04:21;6.97;;;4.13;;
42006;SDS011;27696;42.704;23.304;2022-07-10T09:06:48;7.43;;;4.00;;
42006;SDS011;27696;42.704;23.304;2022-07-10T09:09:15;9.60;;;4.03;;
42006;SDS011;27696;42.704;23.304;2022-07-10T09:11:41;7.32;;;3.50;;
42006;SDS011;27696;42.704;23.304;2022-07-10T09:14:10;8.55;;;3.25;;
42006;SDS011;27696;42.704;23.304;2022-07-10T09:16:39;9.43;;;6.43;;
42006;SDS011;27696;42.704;23.304;2022-07-10T09:21:49;5.78;;;3.33;;
42006;SDS011;27696;42.704;23.304;2022-07-10T09:24:16;4.25;;;3.20;;
42006;SDS011;27696;42.704;23.304;2022-07-10T09:26:47;6.95;;;3.50;;
42006;SDS011;27696;42.704;23.304;2022-07-10T09:29:19;5.35;;;4.25;;
42006;SDS011;27696;42.704;23.304;2022-07-10T09:32:03;4.88;;;4.03;;
42006;SDS011;27696;42.704;23.304;2022-07-10T09:34:38;6.32;;;5.35;;
42006;SDS011;27696;42.704;23.304;2022-07-10T09:40:00;3.55;;;3.17;;
42006;SDS011;27696;42.704;23.304;2022-07-10T09:42:34;5.40;;;4.35;;
42006;SDS011;27696;42.704;23.304;2022-07-10T09:47:42;9.30;;;5.32;;
42006;SDS011;27696;42.704;23.304;2022-07-10T09:50:29;7.80;;;5.55;;
42006;SDS011;27696;42.704;23.304;2022-07-10T09:53:01;9.65;;;5.78;;
42006;SDS011;27696;42.704;23.304;2022-07-10T09:55:29;7.03;;;3.60;;
42006;SDS011;27696;42.704;23.304;2022-07-10T09:58:03;8.23;;;2.75;;
42006;SDS011;27696;42.704;23.304;2022-07-10T10:00:34;9.82;;;7.53;;
42006;SDS011;27696;42.704;23.304;2022-07-10T10:03:06;5.22;;;2.90;;
42006;SDS011;27696;42.704;23.304;2022-07-10T10:05:39;3.83;;;2.72;;
42006;SDS011;27696;42.704;23.304;2022-07-10T10:10:38;5.80;;;2.85;;
42006;SDS011;27696;42.704;23.304;2022-07-10T10:13:08;6.18;;;2.35;;
42006;SDS011;27696;42.704;23.304;2022-07-10T10:15:36;11.48;;;4.90;;
42006;SDS011;27696;42.704;23.304;2022-07-10T10:18:03;10.55;;;8.05;;
42006;SDS011;27696;42.704;23.304;2022-07-10T10:20:31;3.22;;;2.90;;
42006;SDS011;27696;42.704;23.304;2022-07-10T10:23:03;3.35;;;3.00;;
42006;SDS011;27696;42.704;23.304;2022-07-10T10:25:31;7.03;;;4.28;;
42006;SDS011;27696;42.704;23.304;2022-07-10T10:28:01;4.63;;;4.03;;
42006;SDS011;27696;42.704;23.304;2022-07-10T10:30:31;7.28;;;5.70;;
42006;SDS011;27696;42.704;23.304;2022-07-10T10:32:58;6.57;;;3.30;;
42006;SDS011;27696;42.704;23.304;2022-07-10T10:35:41;6.28;;;4.93;;
42006;SDS011;27696;42.704;23.304;2022-07-10T10:38:13;10.18;;;6.35;;
42006;SDS011;27696;42.704;23.304;2022-07-10T10:40:40;4.38;;;3.30;;
42006;SDS011;27696;42.704;23.304;2022-07-10T10:46:01;5.93;;;4.43;;
42006;SDS011;27696;42.704;23.304;2022-07-10T10:49:11;6.05;;;2.88;;
42006;SDS011;27696;42.704;23.304;2022-07-10T10:54:29;4.85;;;4.35;;
42006;SDS011;27696;42.704;23.304;2022-07-10T10:57:17;12.48;;;5.05;;
42006;SDS011;27696;42.704;23.304;2022-07-10T10:59:50;3.45;;;3.03;;
42006;SDS011;27696;42.704;23.304;2022-07-10T11:02:28;6.72;;;3.50;;
42006;SDS011;27696;42.704;23.304;2022-07-10T11:07:57;5.25;;;4.68;;
42006;SDS011;27696;42.704;23.304;2022-07-10T11:10:29;6.63;;;5.95;;
42006;SDS011;27696;42.704;23.304;2022-07-10T11:13:19;3.28;;;2.38;;
42006;SDS011;27696;42.704;23.304;2022-07-10T11:15:44;8.20;;;5.57;;
42006;SDS011;27696;42.704;23.304;2022-07-10T11:18:16;3.55;;;3.25;;
42006;SDS011;27696;42.704;23.304;2022-07-10T11:20:44;3.85;;;2.90;;
42006;SDS011;27696;42.704;23.304;2022-07-10T11:23:23;5.10;;;3.40;;
42006;SDS011;27696;42.704;23.304;2022-07-10T11:26:17;4.47;;;2.55;;
42006;SDS011;27696;42.704;23.304;2022-07-10T11:29:04;11.07;;;8.07;;
42006;SDS011;27696;42.704;23.304;2022-07-10T11:31:33;5.00;;;2.50;;
42006;SDS011;27696;42.704;23.304;2022-07-10T11:34:03;8.68;;;6.30;;
42006;SDS011;27696;42.704;23.304;2022-07-10T11:36:29;11.52;;;8.43;;
42006;SDS011;27696;42.704;23.304;2022-07-10T11:39:06;7.28;;;6.45;;
42006;SDS011;27696;42.704;23.304;2022-07-10T11:41:33;3.95;;;3.28;;
42006;SDS011;27696;42.704;23.304;2022-07-10T11:46:32;13.73;;;11.63;;
42006;SDS011;27696;42.704;23.304;2022-07-10T11:48:59;9.98;;;7.57;;
42006;SDS011;27696;42.704;23.304;2022-07-10T11:51:30;3.47;;;1.95;;
42006;SDS011;27696;42.704;23.304;2022-07-10T11:54:08;4.88;;;3.08;;
42006;SDS011;27696;42.704;23.304;2022-07-10T11:56:37;8.65;;;7.30;;
42006;SDS011;27696;42.704;23.304;2022-07-10T11:59:08;6.03;;;4.80;;
42006;SDS011;27696;42.704;23.304;2022-07-10T12:01:41;2.97;;;2.67;;
42006;SDS011;27696;42.704;23.304;2022-07-10T12:04:09;6.50;;;2.90;;
42006;SDS011;27696;42.704;23.304;2022-07-10T12:06:37;7.72;;;6.95;;
42006;SDS011;27696;42.704;23.304;2022-07-10T12:09:09;10.57;;;9.48;;
42006;SDS011;27696;42.704;23.304;2022-07-10T12:11:36;17.15;;;15.52;;
42006;SDS011;27696;42.704;23.304;2022-07-10T12:16:40;3.92;;;3.00;;
42006;SDS011;27696;42.704;23.304;2022-07-10T12:19:10;8.77;;;7.85;;
42006;SDS011;27696;42.704;23.304;2022-07-10T12:21:38;8.73;;;5.85;;
42006;SDS011;27696;42.704;23.304;2022-07-10T12:24:04;2.22;;;1.65;;
42006;SDS011;27696;42.704;23.304;2022-07-10T12:26:34;6.97;;;5.80;;
42006;SDS011;27696;42.704;23.304;2022-07-10T12:29:04;6.03;;;2.78;;
42006;SDS011;27696;42.704;23.304;2022-07-10T12:31:31;3.45;;;2.58;;
42006;SDS011;27696;42.704;23.304;2022-07-10T12:34:01;3.40;;;2.35;;
42006;SDS011;27696;42.704;23.304;2022-07-10T12:36:44;3.03;;;2.08;;
42006;SDS011;27696;42.704;23.304;2022-07-10T12:39:11;2.88;;;1.63;;
42006;SDS011;27696;42.704;23.304;2022-07-10T12:41:53;3.45;;;1.80;;
42006;SDS011;27696;42.704;23.304;2022-07-10T12:44:34;2.95;;;2.47;;
42006;SDS011;27696;42.704;23.304;2022-07-10T12:47:07;5.68;;;5.00;;
42006;SDS011;27696;42.704;23.304;2022-07-10T12:52:21;6.45;;;3.97;;
42006;SDS011;27696;42.704;23.304;2022-07-10T12:54:48;3.90;;;3.13;;
42006;SDS011;27696;42.704;23.304;2022-07-10T12:57:13;3.28;;;2.33;;
42006;SDS011;27696;42.704;23.304;2022-07-10T12:59:39;6.03;;;3.10;;
42006;SDS011;27696;42.704;23.304;2022-07-10T13:02:14;1.75;;;1.33;;
42006;SDS011;27696;42.704;23.304;2022-07-10T13:04:39;5.43;;;2.75;;
42006;SDS011;27696;42.704;23.304;2022-07-10T13:07:14;2.90;;;2.65;;
42006;SDS011;27696;42.704;23.304;2022-07-10T13:09:39;6.28;;;4.57;;
42006;SDS011;27696;42.704;23.304;2022-07-10T13:12:06;3.92;;;3.25;;
42006;SDS011;27696;42.704;23.304;2022-07-10T13:14:31;3.90;;;1.35;;
42006;SDS011;27696;42.704;23.304;2022-07-10T13:16:57;3.10;;;2.00;;
42006;SDS011;27696;42.704;23.304;2022-07-10T13:19:22;3.85;;;2.45;;
42006;SDS011;27696;42.704;23.304;2022-07-10T13:21:47;3.25;;;1.52;;
42006;SDS011;27696;42.704;23.304;2022-07-10T13:24:13;3.75;;;1.30;;
42006;SDS011;27696;42.704;23.304;2022-07-10T13:26:38;8.15;;;3.25;;
42006;SDS011;27696;42.704;23.304;2022-07-10T13:29:04;3.67;;;1.90;;
42006;SDS011;27696;42.704;23.304;2022-07-10T13:31:29;1.55;;;1.27;;
42006;SDS011;27696;42.704;23.304;2022-07-10T13:33:55;3.92;;;1.88;;
42006;SDS011;27696;42.704;23.304;2022-07-10T13:36:21;4.15;;;1.88;;
42006;SDS011;27696;42.704;23.304;2022-07-10T13:38:46;2.65;;;1.30;;
42006;SDS011;27696;42.704;23.304;2022-07-10T13:41:14;4.40;;;1.52;;
42006;SDS011;27696;42.704;23.304;2022-07-10T13:43:40;2.00;;;1.58;;
42006;SDS011;27696;42.704;23.304;2022-07-10T13:46:05;1.77;;;1.30;;
42006;SDS011;27696;42.704;23.304;2022-07-10T13:48:31;3.55;;;0.95;;
42006;SDS011;27696;42.704;23.304;2022-07-10T13:50:57;1.48;;;1.30;;
42006;SDS011;27696;42.704;23.304;2022-07-10T13:53:22;1.63;;;1.02;;
42006;SDS011;27696;42.704;23.304;2022-07-10T13:55:48;4.93;;;1.20;;
42006;SDS011;27696;42.704;23.304;2022-07-10T13:58:14;6.03;;;1.58;;
42006;SDS011;27696;42.704;23.304;2022-07-10T14:00:40;3.58;;;1.30;;
42006;SDS011;27696;42.704;23.304;2022-07-10T14:03:06;1.55;;;1.20;;
42006;SDS011;27696;42.704;23.304;2022-07-10T14:05:33;1.65;;;1.25;;
42006;SDS011;27696;42.704;23.304;2022-07-10T14:07:59;2.75;;;1.27;;
42006;SDS011;27696;42.704;23.304;2022-07-10T14:10:25;2.95;;;1.00;;
42006;SDS011;27696;42.704;23.304;2022-07-10T14:12:52;2.90;;;1.20;;
42006;SDS011;27696;42.704;23.304;2022-07-10T14:15:18;2.65;;;1.30;;
42006;SDS011;27696;42.704;23.304;2022-07-10T14:17:44;1.73;;;1.17;;
42006;SDS011;27696;42.704;23.304;2022-07-10T14:20:09;2.13;;;1.00;;
42006;SDS011;27696;42.704;23.304;2022-07-10T14:22:36;4.07;;;1.15;;
42006;SDS011;27696;42.704;23.304;2022-07-10T14:25:02;4.55;;;1.50;;
42006;SDS011;27696;42.704;23.304;2022-07-10T14:27:28;1.65;;;1.30;;
42006;SDS011;27696;42.704;23.304;2022-07-10T14:29:55;1.65;;;1.20;;
42006;SDS011;27696;42.704;23.304;2022-07-10T14:32:20;3.33;;;1.30;;
42006;SDS011;27696;42.704;23.304;2022-07-10T14:34:45;1.58;;;1.30;;
42006;SDS011;27696;42.704;23.304;2022-07-10T14:37:11;7.38;;;3.38;;
42006;SDS011;27696;42.704;23.304;2022-07-10T14:39:36;5.22;;;1.40;;
42006;SDS011;27696;42.704;23.304;2022-07-10T14:42:02;3.63;;;2.28;;
42006;SDS011;27696;42.704;23.304;2022-07-10T14:44:30;3.50;;;1.27;;
42006;SDS011;27696;42.704;23.304;2022-07-10T14:46:55;6.82;;;1.40;;
42006;SDS011;27696;42.704;23.304;2022-07-10T14:49:21;1.80;;;1.30;;
42006;SDS011;27696;42.704;23.304;2022-07-10T14:51:46;4.72;;;1.92;;
42006;SDS011;27696;42.704;23.304;2022-07-10T14:54:11;3.08;;;1.63;;